Maldives Meteorological Service

SYNOP

Station Code SYNOP
43555
AAXX 23124 43555 11460 30722 10292 20242 30097 40099 60012 70162 81131 333 10312 59010 81819=
43533
AAXX 23124 43533 11458 50712 10300 20243 30102 40104 60002 70522 82201 333 10321 59009 82818 85078=
43577
AAXX 23124 43577 12462 50510 10299 20257 30093 40095 60002 82202 333 10312 59014 82818 85077=
43588
AAXX 23124 43588 11460 30705 10302 20257 30093 40094 69922 70180 82232 333 10318 59006 82818=
43599
AAXX 23124 43599 12462 30705 10304 20256 30092 40094 60002 82201 333 10318 59011 82818=
Last Updated : 2020-02-23 17:03:21